Skip Navigation Links Skip Navigation Links

Current Weather

Ronald Reagan Washington National, Washington

For information only: do not use for flight planning or navigation.
Latest weather
Observation time Sunday, December 17, 2017 5:52 PM EST
Local time Sunday, December 17, 2017 6:13 PM EST
Flight conditions Visual Meteorological Conditions
Winds
Wind direction South-Southeast (160°)
Wind speed 6 mph
Visibility 10 mi.
Sky condition
Ceiling 10,000 ft. broken clouds
Cloud layer broken clouds 10,000 ft.
Cloud layer overcast 12,000 ft.
Temperature 46°F
Dewpoint 32°F
Altimeter 30.22 in.Hg
Derived measurements
Relative humidity 58%
Wind chill 43°F
Density altitude -1099 ft.
Sea-level pressure 30.22 in.Hg
Remarks
Automated weather observing station with precipitation discriminator.
METAR KDCA 172252Z 16005KT 10SM BKN100 OVC120 08/00 A3022 RMK AO2 SLP233 T00780000

Settings

Location code

InnerDrive.Weather 4.0.6144.1 Release CLR 4.0.30319.36366
Copyright ©2015 Inner Drive Technology. All rights reserved. Portions Copyright ©1986-2015 David Braverman.

Find weather

Site navigation


Skip Navigation Links

Place info

Page info

PayPal - The safer, easier way to pay online!

Return home.

Copyright ©2017 Inner Drive Technology. Purveyors of fine, hand-crafted computer software. Page printed 2017-12-17T23:13:32 UTC.